createdAt,value
2023-03-10T00:01:10.359Z,45.84
2023-03-10T00:03:38.073Z,46.38
2023-03-10T00:06:06.381Z,46.46
2023-03-10T00:08:34.061Z,46.79
2023-03-10T00:11:02.041Z,46.41
2023-03-10T00:13:29.432Z,46.99
2023-03-10T00:15:57.291Z,46.75
2023-03-10T00:18:25.048Z,46.99
2023-03-10T00:20:53.992Z,47.58
2023-03-10T00:23:21.819Z,47.68
2023-03-10T00:25:57.000Z,48.14
2023-03-10T00:28:25.882Z,48.32
2023-03-10T00:31:05.115Z,48.32
2023-03-10T00:33:34.037Z,48.78
2023-03-10T00:36:29.417Z,48.79
2023-03-10T00:38:57.810Z,48.50
2023-03-10T00:41:28.072Z,48.58
2023-03-10T00:43:55.561Z,48.71
2023-03-10T00:46:24.200Z,49.17
2023-03-10T00:48:52.276Z,49.34
2023-03-10T00:51:20.474Z,49.51
2023-03-10T00:53:48.492Z,49.01
2023-03-10T00:56:18.128Z,49.28
2023-03-10T00:58:46.362Z,49.20
2023-03-10T01:01:17.680Z,49.44
2023-03-10T01:03:45.846Z,49.52
2023-03-10T01:06:13.617Z,49.92
2023-03-10T01:08:41.285Z,50.01
2023-03-10T01:11:09.391Z,50.20
2023-03-10T01:13:37.917Z,50.30
2023-03-10T01:16:06.906Z,50.26
2023-03-10T01:18:34.694Z,50.45
2023-03-10T01:21:03.953Z,50.51
2023-03-10T01:23:31.907Z,50.75
2023-03-10T01:25:59.613Z,50.75
2023-03-10T01:28:26.960Z,50.34
2023-03-10T01:30:54.366Z,50.63
2023-03-10T01:33:22.132Z,50.34
2023-03-10T01:35:49.578Z,50.13
2023-03-10T01:38:17.740Z,50.18
2023-03-10T01:40:50.499Z,50.25
2023-03-10T01:43:25.973Z,50.20
2023-03-10T01:45:53.654Z,50.57
2023-03-10T01:48:22.453Z,50.52
2023-03-10T01:50:52.816Z,50.03
2023-03-10T01:53:21.268Z,50.59
2023-03-10T01:55:53.496Z,50.66
2023-03-10T01:58:22.210Z,50.79
2023-03-10T02:00:52.637Z,50.91
2023-03-10T02:03:27.351Z,50.61
2023-03-10T02:05:57.623Z,51.07
2023-03-10T02:08:26.918Z,50.92
2023-03-10T02:10:54.706Z,51.09
2023-03-10T02:13:22.510Z,51.29
2023-03-10T02:15:49.909Z,51.43
2023-03-10T02:18:18.267Z,51.60
2023-03-10T02:21:00.476Z,51.62
2023-03-10T02:23:41.036Z,52.01
2023-03-10T02:26:18.744Z,51.73
2023-03-10T02:28:48.260Z,51.76
2023-03-10T02:31:16.895Z,51.73
2023-03-10T02:33:46.128Z,51.64
2023-03-10T02:36:16.820Z,51.96
2023-03-10T02:38:44.843Z,52.21
2023-03-10T02:41:16.094Z,51.84
2023-03-10T02:43:43.749Z,51.90
2023-03-10T02:46:12.531Z,52.38
2023-03-10T02:48:41.235Z,52.22
2023-03-10T02:51:11.832Z,52.16
2023-03-10T02:53:41.372Z,52.27
2023-03-10T02:56:09.551Z,52.27
2023-03-10T02:58:37.657Z,52.26
2023-03-10T03:01:06.505Z,52.43
2023-03-10T03:03:35.078Z,52.79
2023-03-10T03:06:02.828Z,52.74
2023-03-10T03:08:30.348Z,52.67
2023-03-10T03:10:58.246Z,52.76
2023-03-10T03:13:25.866Z,52.55
2023-03-10T03:15:53.718Z,52.48
2023-03-10T03:18:22.021Z,52.79
2023-03-10T03:20:49.726Z,52.92
2023-03-10T03:23:17.210Z,52.70
2023-03-10T03:25:45.182Z,52.60
2023-03-10T03:28:13.410Z,52.93
2023-03-10T03:30:41.436Z,52.80
2023-03-10T03:33:09.286Z,52.68
2023-03-10T03:35:37.753Z,52.57
2023-03-10T03:38:06.535Z,52.51
2023-03-10T03:40:35.746Z,52.94
2023-03-10T03:43:04.853Z,52.89
2023-03-10T03:45:33.219Z,52.69
2023-03-10T03:48:01.353Z,52.57
2023-03-10T03:50:30.297Z,52.53
2023-03-10T03:52:58.174Z,53.00
2023-03-10T03:55:28.868Z,53.30
2023-03-10T03:57:56.321Z,53.35
2023-03-10T04:00:24.876Z,53.32
2023-03-10T04:02:53.871Z,53.23
2023-03-10T04:05:21.346Z,53.36
2023-03-10T04:07:49.873Z,53.66
2023-03-10T04:10:20.641Z,53.67
2023-03-10T04:12:48.432Z,53.84
2023-03-10T04:15:15.977Z,53.66
2023-03-10T04:17:43.664Z,53.98
2023-03-10T04:20:14.247Z,53.65
2023-03-10T04:22:42.194Z,53.61
2023-03-10T04:25:10.767Z,53.83
2023-03-10T04:27:38.207Z,53.79
2023-03-10T04:30:07.133Z,53.71
2023-03-10T04:32:35.436Z,53.69
2023-03-10T04:35:04.904Z,54.12
2023-03-10T04:37:33.280Z,53.87
2023-03-10T04:40:03.292Z,53.82
2023-03-10T04:42:30.987Z,53.82
2023-03-10T04:44:58.443Z,53.98
2023-03-10T04:47:26.162Z,53.97
2023-03-10T04:49:53.830Z,54.08
2023-03-10T04:52:21.211Z,54.24
2023-03-10T04:54:49.055Z,54.49
2023-03-10T04:57:16.760Z,54.82
2023-03-10T04:59:44.521Z,54.44
2023-03-10T05:02:12.487Z,54.36
2023-03-10T05:04:40.688Z,54.76
2023-03-10T05:07:09.544Z,54.79
2023-03-10T05:09:38.080Z,54.73
2023-03-10T05:12:06.981Z,54.48
2023-03-10T05:14:34.967Z,54.78
2023-03-10T05:17:02.729Z,54.42
2023-03-10T05:19:30.736Z,54.73
2023-03-10T05:21:58.341Z,54.78
2023-03-10T05:24:26.093Z,55.30
2023-03-10T05:26:53.470Z,54.93
2023-03-10T05:29:21.057Z,54.74
2023-03-10T05:31:49.111Z,54.88
2023-03-10T05:34:16.921Z,55.06
2023-03-10T05:36:44.758Z,54.71
2023-03-10T05:39:12.521Z,54.87
2023-03-10T05:41:40.332Z,54.94
2023-03-10T05:44:07.986Z,54.88
2023-03-10T05:46:35.973Z,54.88
2023-03-10T05:49:03.363Z,54.95
2023-03-10T05:51:31.041Z,55.03
2023-03-10T05:54:01.169Z,54.90
2023-03-10T05:56:29.008Z,55.50
2023-03-10T05:58:56.577Z,55.33
2023-03-10T06:01:24.696Z,55.26
2023-03-10T06:03:52.395Z,54.81
2023-03-10T06:06:19.758Z,54.46
2023-03-10T06:08:47.178Z,54.85
2023-03-10T06:11:15.082Z,54.24
2023-03-10T06:13:42.469Z,54.03
2023-03-10T06:16:11.578Z,53.69
2023-03-10T06:18:39.348Z,53.41
2023-03-10T06:21:08.462Z,54.22
2023-03-10T06:23:35.956Z,53.81
2023-03-10T06:26:13.093Z,53.45
2023-03-10T06:28:42.757Z,52.94
2023-03-10T06:31:18.834Z,52.89
2023-03-10T06:33:46.510Z,52.18
2023-03-10T06:36:15.473Z,51.84
2023-03-10T06:38:42.881Z,52.01
2023-03-10T06:41:11.790Z,51.75
2023-03-10T06:43:39.845Z,51.42
2023-03-10T06:46:08.547Z,51.89
2023-03-10T06:48:37.284Z,51.62
2023-03-10T06:51:14.742Z,51.44
2023-03-10T06:53:42.420Z,51.66
2023-03-10T06:56:17.881Z,51.90
2023-03-10T06:58:45.784Z,51.09
2023-03-10T07:01:29.038Z,50.73
2023-03-10T07:03:57.385Z,50.89
2023-03-10T07:06:25.541Z,50.50
2023-03-10T07:08:54.336Z,55.47
2023-03-10T07:11:22.805Z,57.95
2023-03-10T07:13:50.976Z,51.20
2023-03-10T07:16:18.465Z,50.74
2023-03-10T07:18:45.919Z,50.61
2023-03-10T07:21:17.561Z,50.44
2023-03-10T07:23:45.156Z,50.35
2023-03-10T07:26:16.336Z,50.72
2023-03-10T07:28:44.409Z,50.64
2023-03-10T07:31:13.731Z,50.97
2023-03-10T07:33:41.416Z,50.50
2023-03-10T07:36:12.119Z,50.92
2023-03-10T07:38:39.744Z,51.02
2023-03-10T07:41:13.726Z,50.48
2023-03-10T07:43:41.422Z,50.88
2023-03-10T07:46:12.242Z,51.34
2023-03-10T07:48:39.949Z,51.57
2023-03-10T07:51:07.928Z,51.31
2023-03-10T07:53:35.933Z,50.85
2023-03-10T07:56:08.049Z,52.10
2023-03-10T07:58:36.152Z,51.61
2023-03-10T08:01:04.220Z,51.36
2023-03-10T08:03:34.060Z,65.99
2023-03-10T08:06:02.503Z,59.20
2023-03-10T08:08:29.924Z,52.48
2023-03-10T08:11:05.409Z,52.12
2023-03-10T08:13:33.745Z,51.23
2023-03-10T08:16:02.229Z,50.94
2023-03-10T08:18:30.625Z,49.94
2023-03-10T08:20:58.258Z,49.68
2023-03-10T08:23:25.995Z,48.82
2023-03-10T08:25:53.368Z,48.76
2023-03-10T08:28:20.889Z,48.71
2023-03-10T08:31:02.970Z,47.92
2023-03-10T08:33:31.396Z,47.61
2023-03-10T08:36:04.366Z,48.36
2023-03-10T08:38:31.893Z,47.83
2023-03-10T08:41:09.199Z,47.74
2023-03-10T08:43:36.735Z,47.21
2023-03-10T08:46:06.173Z,47.23
2023-03-10T08:48:35.755Z,47.34
2023-03-10T08:51:03.959Z,47.44
2023-03-10T08:53:33.750Z,47.24
2023-03-10T08:56:01.112Z,47.50
2023-03-10T08:58:28.491Z,47.82
2023-03-10T09:00:56.438Z,47.77
2023-03-10T09:03:24.558Z,47.18
2023-03-10T09:05:52.345Z,46.96
2023-03-10T09:08:20.070Z,46.28
2023-03-10T09:10:47.640Z,46.75
2023-03-10T09:13:15.208Z,46.17
2023-03-10T09:15:42.862Z,46.38
2023-03-10T09:18:11.952Z,45.93
2023-03-10T09:20:41.429Z,46.21
2023-03-10T09:23:10.404Z,46.38
2023-03-10T09:25:40.347Z,46.26
2023-03-10T09:28:08.571Z,45.57
2023-03-10T09:30:38.609Z,46.47
2023-03-10T09:33:08.735Z,46.07
2023-03-10T09:35:41.591Z,46.59
2023-03-10T09:38:12.979Z,46.43
2023-03-10T09:40:46.139Z,46.24
2023-03-10T09:43:20.410Z,46.14
2023-03-10T09:45:58.201Z,46.88
2023-03-10T09:48:26.481Z,46.41
2023-03-10T09:50:56.488Z,46.28
2023-03-10T09:53:51.541Z,46.56
2023-03-10T09:56:21.471Z,47.51
2023-03-10T09:58:50.436Z,47.20
2023-03-10T10:01:21.443Z,46.76
2023-03-10T10:03:54.400Z,47.21
2023-03-10T10:06:28.131Z,47.49
2023-03-10T10:09:14.316Z,47.17
2023-03-10T10:11:41.729Z,46.97
2023-03-10T10:14:27.684Z,47.53
2023-03-10T10:17:19.120Z,46.76
2023-03-10T10:19:48.065Z,46.39
2023-03-10T10:22:24.873Z,46.70
2023-03-10T10:25:15.346Z,46.45
2023-03-10T10:27:43.220Z,46.91
2023-03-10T10:30:28.998Z,46.62
2023-03-10T10:33:04.794Z,46.00
2023-03-10T10:35:41.029Z,44.72
2023-03-10T10:38:11.364Z,43.55
2023-03-10T10:40:50.792Z,44.16
2023-03-10T10:43:20.357Z,43.45
2023-03-10T10:45:57.558Z,43.02
2023-03-10T10:48:40.477Z,42.70
2023-03-10T10:51:20.780Z,42.14
2023-03-10T10:53:48.312Z,42.31
2023-03-10T10:56:18.185Z,42.55
2023-03-10T10:59:01.217Z,42.22
2023-03-10T11:01:55.807Z,42.33
2023-03-10T11:04:24.956Z,41.96
2023-03-10T11:06:53.160Z,41.79
2023-03-10T11:09:23.268Z,41.77
2023-03-10T11:12:12.441Z,41.43
2023-03-10T11:14:52.593Z,41.19
2023-03-10T11:17:28.750Z,41.53
2023-03-10T11:20:25.755Z,41.41
2023-03-10T11:22:55.664Z,40.40
2023-03-10T11:25:39.002Z,40.55
2023-03-10T11:28:28.089Z,40.88
2023-03-10T11:31:27.633Z,40.89
2023-03-10T11:34:17.085Z,40.60
2023-03-10T11:37:01.610Z,40.64
2023-03-10T11:39:35.671Z,40.69
2023-03-10T11:42:11.090Z,40.49
2023-03-10T11:44:43.159Z,40.54
2023-03-10T11:47:25.676Z,39.53
2023-03-10T11:50:07.646Z,40.09
2023-03-10T11:52:35.381Z,39.59
2023-03-10T11:55:15.124Z,39.11
2023-03-10T11:57:46.133Z,38.98
2023-03-10T12:00:26.149Z,39.01
2023-03-10T12:03:12.279Z,40.04
2023-03-10T12:05:45.357Z,40.17
2023-03-10T12:08:14.023Z,40.07
2023-03-10T12:10:42.268Z,40.68
2023-03-10T12:13:23.623Z,40.20
2023-03-10T12:15:54.788Z,40.47
2023-03-10T12:18:23.931Z,40.47
2023-03-10T12:21:15.343Z,40.41
2023-03-10T12:23:45.312Z,39.96
2023-03-10T12:26:13.286Z,40.82
2023-03-10T12:28:41.034Z,41.23
2023-03-10T12:31:11.445Z,41.76
2023-03-10T12:33:46.430Z,42.11
2023-03-10T12:36:19.943Z,41.78
2023-03-10T12:38:57.401Z,42.44
2023-03-10T12:41:27.896Z,41.90
2023-03-10T12:43:55.553Z,42.43
2023-03-10T12:47:00.682Z,42.60
2023-03-10T12:49:28.278Z,42.45
2023-03-10T12:52:02.489Z,42.81
2023-03-10T12:55:04.880Z,42.59
2023-03-10T12:57:38.058Z,42.92
2023-03-10T13:00:24.213Z,43.02
2023-03-10T13:03:13.365Z,43.43
2023-03-10T13:06:02.932Z,42.37
2023-03-10T13:08:39.326Z,42.58
2023-03-10T13:11:31.527Z,42.58
2023-03-10T13:14:05.097Z,42.61
2023-03-10T13:16:33.593Z,42.16
2023-03-10T13:19:01.391Z,42.50
2023-03-10T13:21:39.519Z,42.96
2023-03-10T13:24:29.564Z,42.70
2023-03-10T13:27:18.848Z,43.38
2023-03-10T13:29:59.450Z,44.96
2023-03-10T13:32:27.074Z,45.24
2023-03-10T13:34:56.264Z,45.24
2023-03-10T13:37:24.361Z,45.66
2023-03-10T13:39:52.188Z,45.43
2023-03-10T13:42:40.709Z,44.86
2023-03-10T13:45:21.953Z,44.92
2023-03-10T13:47:51.054Z,44.18
2023-03-10T13:50:18.650Z,43.99
2023-03-10T13:52:54.585Z,43.66
2023-03-10T13:55:22.260Z,43.72
2023-03-10T13:57:50.236Z,43.58
2023-03-10T14:00:20.545Z,43.42
2023-03-10T14:02:49.500Z,43.78
2023-03-10T14:05:39.172Z,43.57
2023-03-10T14:08:15.950Z,43.60
2023-03-10T14:10:43.361Z,43.88
2023-03-10T14:13:42.946Z,43.62
2023-03-10T14:16:11.110Z,44.47
2023-03-10T14:18:41.459Z,44.98
2023-03-10T14:21:27.089Z,45.02
2023-03-10T14:23:56.952Z,45.60
2023-03-10T14:26:25.033Z,46.17
2023-03-10T14:28:52.447Z,47.20
2023-03-10T14:31:22.750Z,46.51
2023-03-10T14:33:50.791Z,46.44
2023-03-10T14:36:18.426Z,46.72
2023-03-10T14:38:46.220Z,46.78
2023-03-10T14:41:14.168Z,46.62
2023-03-10T14:43:42.326Z,45.85
2023-03-10T14:46:11.459Z,46.14
2023-03-10T14:48:41.835Z,46.44
2023-03-10T14:51:29.068Z,46.22
2023-03-10T14:54:02.022Z,46.89
2023-03-10T14:56:30.095Z,47.15
2023-03-10T14:59:02.067Z,47.21
2023-03-10T15:01:30.697Z,47.76
2023-03-10T15:03:58.146Z,48.35
2023-03-10T15:06:25.539Z,48.55
2023-03-10T15:08:53.209Z,49.16
2023-03-10T15:11:35.618Z,49.13
2023-03-10T15:14:12.542Z,49.35
2023-03-10T15:16:39.913Z,49.36
2023-03-10T15:19:14.209Z,48.90
2023-03-10T15:21:41.584Z,49.44
2023-03-10T15:24:09.394Z,49.32
2023-03-10T15:26:36.771Z,49.61
2023-03-10T15:29:04.120Z,49.85
2023-03-10T15:31:31.801Z,49.79
2023-03-10T15:33:59.166Z,49.75
2023-03-10T15:36:26.613Z,49.94
2023-03-10T15:38:54.365Z,50.05
2023-03-10T15:41:21.789Z,50.32
2023-03-10T15:43:50.378Z,50.45
2023-03-10T15:46:18.349Z,51.13
2023-03-10T15:48:45.789Z,51.39
2023-03-10T15:51:17.410Z,51.83
2023-03-10T15:53:45.333Z,52.72
2023-03-10T15:56:13.098Z,52.90
2023-03-10T15:58:40.576Z,53.36
2023-03-10T16:01:15.337Z,53.51
2023-03-10T16:03:43.659Z,54.10
2023-03-10T16:06:12.439Z,54.47
2023-03-10T16:08:40.164Z,55.22
2023-03-10T16:11:15.118Z,55.50
2023-03-10T16:13:45.177Z,56.86
2023-03-10T16:16:13.123Z,56.47
2023-03-10T16:18:40.469Z,56.49
2023-03-10T16:21:08.045Z,55.94
2023-03-10T16:23:35.706Z,55.15
2023-03-10T16:26:13.594Z,53.96
2023-03-10T16:28:43.592Z,53.25
2023-03-10T16:31:12.869Z,52.82
2023-03-10T16:33:41.548Z,52.73
2023-03-10T16:36:13.222Z,52.57
2023-03-10T16:38:41.006Z,51.71
2023-03-10T16:41:09.508Z,51.01
2023-03-10T16:43:37.337Z,50.91
2023-03-10T16:46:09.270Z,50.80
2023-03-10T16:48:41.949Z,50.36
2023-03-10T16:51:31.005Z,50.65
2023-03-10T16:54:03.557Z,50.87
2023-03-10T16:56:32.691Z,51.01
2023-03-10T16:59:00.132Z,50.73
2023-03-10T17:01:27.825Z,50.90
2023-03-10T17:03:56.049Z,50.60
2023-03-10T17:06:31.088Z,50.70
2023-03-10T17:09:00.258Z,51.41
2023-03-10T17:11:55.345Z,51.90
2023-03-10T17:14:23.716Z,52.65
2023-03-10T17:16:51.225Z,52.21
2023-03-10T17:19:21.146Z,53.21
2023-03-10T17:21:50.606Z,53.11
2023-03-10T17:24:19.959Z,53.46
2023-03-10T17:26:47.683Z,53.54
2023-03-10T17:29:15.645Z,53.39
2023-03-10T17:31:43.971Z,52.93
2023-03-10T17:34:12.990Z,52.71
2023-03-10T17:36:40.663Z,52.72
2023-03-10T17:39:08.288Z,52.92
2023-03-10T17:41:36.579Z,52.79
2023-03-10T17:44:06.771Z,53.03
2023-03-10T17:46:34.270Z,52.99
2023-03-10T17:49:01.796Z,52.81
2023-03-10T17:51:30.854Z,52.63
2023-03-10T17:54:00.955Z,52.93
2023-03-10T17:56:29.004Z,52.46
2023-03-10T17:58:57.083Z,52.82
2023-03-10T18:01:27.558Z,53.04
2023-03-10T18:03:56.296Z,53.18
2023-03-10T18:06:26.292Z,52.61
2023-03-10T18:08:56.231Z,52.76
2023-03-10T18:11:25.594Z,53.07
2023-03-10T18:13:53.248Z,53.00
2023-03-10T18:16:26.113Z,53.38
2023-03-10T18:18:54.704Z,54.44
2023-03-10T18:21:22.458Z,55.05
2023-03-10T18:23:51.191Z,56.49
2023-03-10T18:26:32.351Z,55.56
2023-03-10T18:28:59.940Z,55.18
2023-03-10T18:31:33.096Z,54.86
2023-03-10T18:34:00.874Z,54.50
2023-03-10T18:36:29.375Z,54.48
2023-03-10T18:38:57.055Z,54.61
2023-03-10T18:41:26.783Z,54.72
2023-03-10T18:43:54.486Z,54.90
2023-03-10T18:46:22.345Z,54.63
2023-03-10T18:48:55.432Z,54.67
2023-03-10T18:51:27.774Z,54.82
2023-03-10T18:53:55.464Z,55.06
2023-03-10T18:56:25.660Z,55.73
2023-03-10T18:58:53.347Z,57.13
2023-03-10T19:01:20.868Z,58.11
2023-03-10T19:03:48.651Z,58.74
2023-03-10T19:06:16.333Z,59.49
2023-03-10T20:03:54.427Z,68.38
2023-03-10T20:06:23.548Z,68.38
2023-03-10T20:08:51.883Z,68.24
2023-03-10T20:11:19.849Z,67.46
2023-03-10T20:13:47.629Z,66.75
2023-03-10T20:16:16.077Z,66.43
2023-03-10T20:18:43.442Z,66.22
2023-03-10T20:21:11.377Z,66.11
2023-03-10T20:23:39.099Z,65.38
2023-03-10T20:26:09.233Z,64.58
2023-03-10T20:28:39.499Z,63.78
2023-03-10T20:31:07.509Z,64.63
2023-03-10T20:33:36.102Z,64.55
2023-03-10T20:36:04.291Z,64.78
2023-03-10T20:38:31.617Z,64.87
2023-03-10T20:41:02.225Z,64.96
2023-03-10T20:43:30.245Z,64.25
2023-03-10T20:45:57.628Z,62.86
2023-03-10T20:48:24.977Z,62.61
2023-03-10T20:50:56.141Z,63.21
2023-03-10T20:53:23.622Z,63.72
2023-03-10T20:55:51.174Z,64.88
2023-03-10T20:58:18.922Z,65.18
2023-03-10T21:00:47.676Z,65.06
2023-03-10T21:03:15.064Z,65.88
2023-03-10T21:05:42.708Z,67.26
2023-03-10T21:08:10.405Z,66.46
2023-03-10T21:10:38.035Z,65.66
2023-03-10T21:13:06.055Z,65.58
2023-03-10T21:15:33.448Z,65.32
2023-03-10T21:18:00.818Z,65.16
2023-03-10T21:20:28.511Z,65.65
2023-03-10T21:22:55.951Z,65.30
2023-03-10T21:25:24.983Z,65.46
2023-03-10T21:27:58.583Z,65.46
2023-03-10T21:30:31.690Z,65.07
2023-03-10T21:33:00.070Z,64.53
2023-03-10T21:35:30.365Z,64.26
2023-03-10T21:37:59.276Z,64.37
2023-03-10T21:40:27.058Z,64.29
2023-03-10T21:42:54.475Z,64.14
2023-03-10T21:45:23.896Z,63.65
2023-03-10T21:47:51.606Z,63.73
2023-03-10T21:50:19.184Z,63.69
2023-03-10T21:52:47.998Z,64.01
2023-03-10T21:55:19.835Z,63.89
2023-03-10T21:57:47.426Z,64.65
2023-03-10T22:00:16.356Z,64.53
2023-03-10T22:02:43.977Z,64.92
2023-03-10T22:05:15.479Z,64.56
2023-03-10T22:07:43.051Z,64.48
2023-03-10T22:10:12.238Z,64.41
2023-03-10T22:12:39.693Z,64.39
2023-03-10T22:15:09.041Z,64.59
2023-03-10T22:17:36.731Z,64.67
2023-03-10T22:20:07.000Z,65.12
2023-03-10T22:22:34.696Z,64.69
2023-03-10T22:25:02.402Z,64.76
2023-03-10T22:27:29.748Z,64.12
2023-03-10T22:29:57.092Z,64.40
2023-03-10T22:32:24.785Z,64.28
2023-03-10T22:34:52.246Z,64.04
2023-03-10T22:37:19.606Z,63.75
2023-03-10T22:39:47.426Z,63.67
2023-03-10T22:42:14.765Z,63.51
2023-03-10T22:44:42.440Z,63.11
2023-03-10T22:47:10.202Z,62.66
2023-03-10T22:49:37.588Z,62.59
2023-03-10T22:52:06.984Z,62.06
2023-03-10T22:54:34.663Z,62.77
2023-03-10T22:57:02.047Z,62.60
2023-03-10T22:59:29.431Z,62.27
2023-03-10T23:01:57.145Z,64.28
2023-03-10T23:04:24.594Z,63.41
2023-03-10T23:06:51.977Z,62.77
2023-03-10T23:09:19.785Z,62.80
2023-03-10T23:11:48.958Z,62.05
2023-03-10T23:14:16.465Z,61.35
2023-03-10T23:16:44.109Z,61.09
2023-03-10T23:19:11.480Z,60.20
2023-03-10T23:21:39.232Z,59.36
2023-03-10T23:24:07.007Z,59.54
2023-03-10T23:26:36.646Z,58.47
2023-03-10T23:29:04.415Z,59.22
2023-03-10T23:31:32.080Z,58.13
2023-03-10T23:33:59.455Z,59.31
2023-03-10T23:36:26.841Z,58.22
2023-03-10T23:38:54.492Z,57.82
2023-03-10T23:41:21.899Z,57.59
2023-03-10T23:43:51.548Z,57.65
2023-03-10T23:46:21.808Z,57.76
2023-03-10T23:48:49.598Z,57.25
2023-03-10T23:51:17.667Z,57.59
2023-03-10T23:53:45.515Z,56.83
2023-03-10T23:56:12.893Z,55.85
2023-03-10T23:58:40.267Z,56.80
